Time;durP1;ratioP1;P1;durP2;ratioP2;P2;SDS_P1;SDS_P2;PMS_P1;PMS_P2;Temp;Humidity;BMP_temperature;BMP_pressure;BME280_temperature;BME280_humidity;BME280_pressure;Samples;Min_cycle;Max_cycle;Signal;HPM_P1;HPM_P2
2024/01/20 00:00:46;;;;;;;64.95;23.67;;;;;;;-1.80;100.00;102508.41;5028702;28;20053;-68
2024/01/20 00:03:13;;;;;;;59.95;21.27;;;;;;;-1.80;100.00;102513.56;5029896;28;20057;-68
2024/01/20 00:05:40;;;;;;;60.40;21.92;;;;;;;-1.80;100.00;102517.88;5028167;28;20496;-68
2024/01/20 00:08:07;;;;;;;58.15;21.73;;;;;;;-1.83;100.00;102517.72;5029875;28;20045;-68
2024/01/20 00:10:35;;;;;;;67.90;22.30;;;;;;;-1.83;100.00;102517.72;5027831;28;20456;-68
2024/01/20 00:13:03;;;;;;;60.67;21.55;;;;;;;-1.80;100.00;102512.69;5029092;28;20065;-68
2024/01/20 00:15:30;;;;;;;58.92;20.73;;;;;;;-1.75;100.00;102518.97;5028134;28;20060;-68
2024/01/20 00:17:57;;;;;;;54.92;21.20;;;;;;;-1.69;100.00;102516.69;5028809;28;20059;-68
2024/01/20 00:20:24;;;;;;;66.45;22.85;;;;;;;-1.62;100.00;102515.25;5045451;28;20053;-69
2024/01/20 00:22:52;;;;;;;59.03;21.05;;;;;;;-1.59;100.00;102515.41;5044690;28;20072;-68
2024/01/20 00:25:19;;;;;;;63.90;22.05;;;;;;;-1.53;100.00;102515.69;5029258;28;20053;-68
2024/01/20 00:27:49;;;;;;;65.82;22.45;;;;;;;-1.51;100.00;102520.94;5028796;28;20049;-68
2024/01/20 00:30:17;;;;;;;62.35;22.65;;;;;;;-1.49;100.00;102527.06;5060501;28;20668;-69
2024/01/20 00:32:44;;;;;;;61.58;22.20;;;;;;;-1.50;100.00;102526.16;5030425;28;20091;-68
2024/01/20 00:35:11;;;;;;;67.03;22.05;;;;;;;-1.47;100.00;102526.31;5030036;28;20459;-68
2024/01/20 00:37:38;;;;;;;60.25;22.20;;;;;;;-1.45;100.00;102527.28;5029290;28;20116;-68
2024/01/20 00:40:07;;;;;;;63.65;21.13;;;;;;;-1.43;100.00;102527.34;5027341;28;20042;-68
2024/01/20 00:42:34;;;;;;;59.45;21.23;;;;;;;-1.43;100.00;102522.16;5030278;28;20099;-68
2024/01/20 00:45:04;;;;;;;63.25;22.40;;;;;;;-1.42;100.00;102529.13;5020923;28;20045;-68
2024/01/20 00:47:31;;;;;;;54.95;21.08;;;;;;;-1.42;100.00;102524.81;5025495;28;20050;-68
2024/01/20 00:50:03;;;;;;;56.47;21.40;;;;;;;-1.39;100.00;102521.50;5018079;28;20099;-68
2024/01/20 00:52:31;;;;;;;54.90;20.38;;;;;;;-1.38;100.00;102522.38;5029189;28;20681;-68
2024/01/20 00:54:58;;;;;;;57.60;20.92;;;;;;;-1.36;100.00;102513.88;5027112;28;20080;-68
2024/01/20 00:57:25;;;;;;;60.72;20.65;;;;;;;-1.33;100.00;102520.91;5027908;28;20413;-68
2024/01/20 00:59:52;;;;;;;56.15;20.38;;;;;;;-1.30;100.00;102518.44;5028465;28;20036;-68
2024/01/20 01:02:19;;;;;;;53.97;19.80;;;;;;;-1.31;100.00;102525.31;5027028;28;20548;-68
2024/01/20 01:04:46;;;;;;;59.75;20.05;;;;;;;-1.30;100.00;102516.75;5028304;28;20586;-68
2024/01/20 01:07:13;;;;;;;51.05;19.90;;;;;;;-1.27;100.00;102511.69;5029117;28;20045;-68
2024/01/20 01:09:40;;;;;;;50.00;19.58;;;;;;;-1.27;100.00;102522.03;5027941;28;20568;-68
2024/01/20 01:12:07;;;;;;;54.42;20.48;;;;;;;-1.28;100.00;102521.97;5027772;28;20045;-68
2024/01/20 01:14:34;;;;;;;56.55;20.15;;;;;;;-1.28;100.00;102528.06;5033239;28;20132;-68
2024/01/20 01:17:02;;;;;;;55.20;21.02;;;;;;;-1.25;100.00;102523.00;5035745;28;20068;-68
2024/01/20 01:19:29;;;;;;;52.35;18.75;;;;;;;-1.24;100.00;102523.91;5044050;28;20056;-69
2024/01/20 01:21:56;;;;;;;50.13;19.13;;;;;;;-1.25;100.00;102512.66;5028814;28;20080;-68
2024/01/20 01:24:23;;;;;;;50.97;18.50;;;;;;;-1.22;100.00;102527.41;5043390;28;20039;-69
2024/01/20 01:26:50;;;;;;;53.25;18.98;;;;;;;-1.18;100.00;102533.66;5028452;28;20509;-69
2024/01/20 01:29:17;;;;;;;52.95;18.65;;;;;;;-1.19;100.00;102531.88;5026950;28;20045;-69
2024/01/20 01:31:44;;;;;;;46.05;18.58;;;;;;;-1.18;100.00;102525.88;5028489;28;20045;-68
2024/01/20 01:34:12;;;;;;;47.65;18.40;;;;;;;-1.17;100.00;102532.84;5042532;28;20037;-69
2024/01/20 01:36:39;;;;;;;46.47;18.75;;;;;;;-1.16;100.00;102529.41;5027645;28;20139;-69
2024/01/20 01:39:06;;;;;;;52.45;20.20;;;;;;;-1.14;100.00;102538.13;5026796;28;20049;-68
2024/01/20 01:41:33;;;;;;;53.40;18.73;;;;;;;-1.12;100.00;102541.69;5041681;28;20152;-69
2024/01/20 01:44:02;;;;;;;49.03;18.25;;;;;;;-1.11;100.00;102540.88;5027025;28;20117;-68
2024/01/20 01:46:30;;;;;;;52.30;18.17;;;;;;;-1.09;100.00;102547.00;5009534;28;20565;-69
2024/01/20 01:48:57;;;;;;;45.53;19.05;;;;;;;-1.08;100.00;102547.88;5026841;28;21043;-68
2024/01/20 01:51:24;;;;;;;46.50;16.80;;;;;;;-1.07;100.00;102550.56;5027129;28;20058;-69
2024/01/20 01:53:52;;;;;;;44.85;18.10;;;;;;;-1.07;100.00;102558.31;5028134;28;20560;-68
2024/01/20 01:56:20;;;;;;;44.67;17.25;;;;;;;-1.07;100.00;102552.25;5024491;28;20053;-68
2024/01/20 01:58:47;;;;;;;44.63;18.25;;;;;;;-1.07;100.00;102550.56;5027101;28;20048;-67
2024/01/20 02:01:14;;;;;;;50.85;18.65;;;;;;;-1.07;100.00;102557.41;5024328;28;20075;-67
2024/01/20 02:03:41;;;;;;;49.45;17.60;;;;;;;-1.08;100.00;102563.41;5026088;28;20053;-67
2024/01/20 02:06:09;;;;;;;45.58;18.80;;;;;;;-1.12;100.00;102563.25;5043215;28;20120;-67
2024/01/20 02:08:40;;;;;;;47.55;18.58;;;;;;;-1.13;100.00;102561.53;5026221;28;20039;-67
2024/01/20 02:11:08;;;;;;;43.40;17.15;;;;;;;-1.17;100.00;102571.66;5026789;28;20057;-67
2024/01/20 02:13:36;;;;;;;46.47;17.08;;;;;;;-1.21;100.00;102569.75;5026497;28;20043;-68
2024/01/20 02:16:04;;;;;;;43.47;16.05;;;;;;;-1.28;100.00;102564.28;5027070;28;20091;-68
2024/01/20 02:18:31;;;;;;;39.20;17.00;;;;;;;-1.30;100.00;102573.69;5026012;28;20069;-68
2024/01/20 02:20:58;;;;;;;43.65;16.20;;;;;;;-1.29;100.00;102578.03;5028151;28;20132;-68
2024/01/20 02:23:25;;;;;;;44.42;16.83;;;;;;;-1.30;100.00;102577.94;5033458;28;20115;-67
2024/01/20 02:25:53;;;;;;;43.67;16.88;;;;;;;-1.30;100.00;102573.69;5041122;28;20048;-68
2024/01/20 02:28:20;;;;;;;41.00;17.08;;;;;;;-1.27;100.00;102580.69;5026313;28;20046;-68
2024/01/20 02:30:47;;;;;;;41.95;18.00;;;;;;;-1.26;100.00;102577.28;5028658;28;20050;-68
2024/01/20 02:33:14;;;;;;;43.83;16.13;;;;;;;-1.29;100.00;102574.56;5041425;28;20591;-69
2024/01/20 02:35:42;;;;;;;40.65;17.35;;;;;;;-1.29;100.00;102575.47;5028632;28;20054;-68
2024/01/20 02:38:09;;;;;;;43.15;16.27;;;;;;;-1.29;100.00;102580.63;5027062;28;20052;-68
2024/01/20 02:40:36;;;;;;;40.08;16.35;;;;;;;-1.29;100.00;102580.63;5027559;28;20123;-68
2024/01/20 02:43:03;;;;;;;40.60;17.00;;;;;;;-1.26;100.00;102582.47;5026513;28;20099;-68
2024/01/20 02:45:30;;;;;;;38.75;16.55;;;;;;;-1.25;100.00;102582.53;5037085;28;20052;-68
2024/01/20 02:47:58;;;;;;;38.03;15.25;;;;;;;-1.23;100.00;102585.22;5037579;28;20045;-68
2024/01/20 02:50:25;;;;;;;40.95;15.40;;;;;;;-1.21;100.00;102580.09;5028582;28;20467;-68
2024/01/20 02:52:52;;;;;;;38.10;15.52;;;;;;;-1.18;100.00;102582.84;5024754;28;20037;-68
2024/01/20 02:55:20;;;;;;;44.10;14.98;;;;;;;-1.17;100.00;102588.06;5029509;28;20046;-68
2024/01/20 02:57:47;;;;;;;42.17;16.27;;;;;;;-1.17;100.00;102575.13;5025839;28;20048;-68
2024/01/20 03:00:14;;;;;;;39.42;15.80;;;;;;;-1.17;100.00;102582.03;5010970;28;20091;-68
2024/01/20 03:02:41;;;;;;;39.78;16.08;;;;;;;-1.15;100.00;102583.84;5026001;28;20068;-67
2024/01/20 03:05:09;;;;;;;34.45;15.90;;;;;;;-1.16;100.00;102578.59;5027183;28;20621;-67
2024/01/20 03:07:36;;;;;;;41.33;16.00;;;;;;;-1.16;100.00;102582.06;5028154;28;20096;-67
2024/01/20 03:10:03;;;;;;;44.25;16.08;;;;;;;-1.18;100.00;102567.31;5026037;28;20049;-67
2024/01/20 03:12:30;;;;;;;39.92;15.50;;;;;;;-1.24;100.00;102567.91;5025772;28;20502;-68
2024/01/20 03:14:57;;;;;;;45.75;16.45;;;;;;;-1.23;100.00;102568.78;5026199;28;20099;-67
2024/01/20 03:17:24;;;;;;;40.60;16.67;;;;;;;-1.25;100.00;102566.13;5028014;28;20469;-68
2024/01/20 03:19:51;;;;;;;44.00;17.45;;;;;;;-1.27;100.00;102573.81;5026317;28;20095;-68
2024/01/20 03:22:19;;;;;;;43.58;16.92;;;;;;;-1.30;100.00;102571.09;5011428;28;20465;-68
2024/01/20 03:24:49;;;;;;;43.88;15.68;;;;;;;-1.32;100.00;102570.13;5025411;28;20498;-68
2024/01/20 03:27:19;;;;;;;39.67;16.92;;;;;;;-1.33;100.00;102576.13;5025895;28;20045;-67
2024/01/20 03:29:46;;;;;;;42.55;16.23;;;;;;;-1.34;100.00;102578.66;5026989;28;20133;-67
2024/01/20 03:32:13;;;;;;;38.05;14.80;;;;;;;-1.35;100.00;102585.50;5027028;28;20052;-68
2024/01/20 03:34:40;;;;;;;39.13;15.70;;;;;;;-1.34;100.00;102591.59;5025341;28;20133;-68
2024/01/20 03:37:07;;;;;;;41.33;15.23;;;;;;;-1.36;100.00;102590.63;5025614;28;20132;-68
2024/01/20 03:39:35;;;;;;;43.85;16.35;;;;;;;-1.36;100.00;102599.25;5025797;28;20044;-68
2024/01/20 03:42:02;;;;;;;41.85;15.85;;;;;;;-1.33;100.00;102588.19;5028827;28;20520;-67
2024/01/20 03:44:29;;;;;;;36.38;15.00;;;;;;;-1.29;100.00;102585.81;5039787;28;20143;-67
2024/01/20 03:46:56;;;;;;;39.22;15.23;;;;;;;-1.23;100.00;102589.47;5030284;28;20401;-69
2024/01/20 03:49:23;;;;;;;37.90;15.43;;;;;;;-1.19;100.00;102586.22;5030087;28;20052;-69
2024/01/20 03:51:50;;;;;;;40.55;15.15;;;;;;;-1.19;100.00;102592.28;5028375;28;20041;-68
2024/01/20 03:54:17;;;;;;;37.40;15.10;;;;;;;-1.19;100.00;102586.22;5030386;28;20054;-68
2024/01/20 03:56:44;;;;;;;42.22;15.65;;;;;;;-1.19;100.00;102586.22;5030086;28;20037;-68
2024/01/20 03:59:11;;;;;;;39.17;16.33;;;;;;;-1.20;100.00;102587.03;5045180;28;20042;-68
2024/01/20 04:01:39;;;;;;;40.10;16.55;;;;;;;-1.21;100.00;102590.44;5030170;28;20148;-68
2024/01/20 04:04:06;;;;;;;42.13;16.90;;;;;;;-1.23;100.00;102592.06;5029189;28;20588;-68
2024/01/20 04:06:34;;;;;;;38.47;15.50;;;;;;;-1.24;100.00;102588.59;5027520;28;20099;-68
2024/01/20 04:09:01;;;;;;;40.45;16.00;;;;;;;-1.20;100.00;102594.81;5028118;28;20546;-68
2024/01/20 04:11:28;;;;;;;40.92;16.38;;;;;;;-1.20;100.00;102587.03;5028440;28;20056;-68
2024/01/20 04:13:55;;;;;;;36.15;15.13;;;;;;;-1.20;100.00;102595.69;5028340;28;20060;-68
2024/01/20 04:16:22;;;;;;;40.10;15.45;;;;;;;-1.22;100.00;102606.78;5031747;28;20409;-68
2024/01/20 04:18:49;;;;;;;41.15;16.65;;;;;;;-1.21;100.00;102590.44;5026802;28;20042;-68
2024/01/20 04:21:16;;;;;;;42.67;16.33;;;;;;;-1.23;100.00;102594.66;5027862;28;20045;-68
2024/01/20 04:23:43;;;;;;;37.90;16.00;;;;;;;-1.25;100.00;102592.00;5027339;28;20052;-68
2024/01/20 04:26:11;;;;;;;40.92;16.08;;;;;;;-1.27;100.00;102596.22;5024917;28;20066;-68
2024/01/20 04:28:38;;;;;;;40.95;16.05;;;;;;;-1.28;100.00;102594.44;5028261;28;20073;-68
2024/01/20 04:31:05;;;;;;;39.58;16.20;;;;;;;-1.28;100.00;102594.44;5029921;28;20040;-68
2024/01/20 04:33:34;;;;;;;42.97;16.45;;;;;;;-1.28;100.00;102597.94;5028990;28;20091;-68
2024/01/20 04:36:03;;;;;;;39.75;16.33;;;;;;;-1.27;100.00;102599.69;5028927;28;20052;-68
2024/01/20 04:38:30;;;;;;;43.42;16.95;;;;;;;-1.26;100.00;102601.47;5028103;28;20069;-68
2024/01/20 04:40:57;;;;;;;37.10;16.42;;;;;;;-1.23;100.00;102611.09;5028320;28;20607;-68
2024/01/20 04:43:24;;;;;;;40.38;17.30;;;;;;;-1.23;100.00;102617.94;5021838;28;20046;-68
2024/01/20 04:45:51;;;;;;;43.60;17.35;;;;;;;-1.22;100.00;102617.13;5028996;28;20095;-68
2024/01/20 04:48:19;;;;;;;40.45;16.17;;;;;;;-1.22;100.00;102614.56;5048009;28;20046;-68
2024/01/20 04:50:47;;;;;;;40.95;15.80;;;;;;;-1.28;100.00;102613.47;5043702;28;20436;-68
2024/01/20 04:53:14;;;;;;;35.85;14.93;;;;;;;-1.30;100.00;102630.63;5029459;28;20533;-68
2024/01/20 04:55:41;;;;;;;41.70;15.40;;;;;;;-1.29;100.00;102629.81;5027784;28;20043;-68
2024/01/20 04:58:08;;;;;;;39.83;15.15;;;;;;;-1.31;100.00;102628.84;5031524;28;20046;-68
2024/01/20 05:00:35;;;;;;;44.65;16.73;;;;;;;-1.31;100.00;102627.94;5030051;28;20148;-67
2024/01/20 05:03:03;;;;;;;39.05;15.75;;;;;;;-1.33;100.00;102632.19;5026862;28;20156;-68
2024/01/20 05:05:30;;;;;;;37.13;15.45;;;;;;;-1.36;100.00;102637.19;5029863;28;20108;-68
2024/01/20 05:07:57;;;;;;;39.42;15.50;;;;;;;-1.38;100.00;102637.13;5030478;28;20053;-68
2024/01/20 05:10:24;;;;;;;37.65;16.15;;;;;;;-1.39;100.00;102645.72;5028345;28;20045;-68
2024/01/20 05:12:52;;;;;;;43.25;16.20;;;;;;;-1.41;100.00;102639.56;5026920;28;20076;-68
2024/01/20 05:15:19;;;;;;;40.13;16.42;;;;;;;-1.35;100.00;102639.84;5025188;28;20520;-68
2024/01/20 05:17:46;;;;;;;39.97;15.75;;;;;;;-1.32;100.00;102645.19;5021135;28;20041;-68
2024/01/20 05:20:14;;;;;;;39.47;16.58;;;;;;;-1.28;100.00;102654.88;5029609;28;20047;-68
2024/01/20 05:22:42;;;;;;;40.20;16.50;;;;;;;-1.26;100.00;102653.22;5028319;28;20042;-68
2024/01/20 05:25:09;;;;;;;38.25;15.90;;;;;;;-1.22;100.00;102659.44;5027145;28;20202;-68
2024/01/20 05:27:36;;;;;;;38.03;15.55;;;;;;;-1.19;100.00;102664.75;5025936;28;20461;-68
2024/01/20 05:30:05;;;;;;;37.67;15.88;;;;;;;-1.17;100.00;102655.38;5028214;28;20119;-68
2024/01/20 05:32:32;;;;;;;42.08;16.63;;;;;;;-1.15;100.00;102658.91;5027666;28;20131;-68
2024/01/20 05:34:59;;;;;;;34.22;15.40;;;;;;;-1.15;100.00;102647.66;5027275;28;20049;-68
2024/01/20 05:37:26;;;;;;;39.28;16.30;;;;;;;-1.14;100.00;102665.88;5026659;28;20050;-68
2024/01/20 05:39:53;;;;;;;38.92;15.80;;;;;;;-1.12;100.00;102676.28;5024248;28;20465;-68
2024/01/20 05:42:20;;;;;;;39.95;15.98;;;;;;;-1.12;100.00;102666.81;5025816;28;20045;-68
2024/01/20 05:44:47;;;;;;;41.00;16.52;;;;;;;-1.06;100.00;102673.09;5025582;28;20049;-68
2024/01/20 05:47:14;;;;;;;47.03;18.55;;;;;;;-1.06;100.00;102676.56;5008784;28;20636;-68
2024/01/20 05:49:42;;;;;;;40.78;17.60;;;;;;;-1.06;100.00;102679.16;5024317;28;20087;-68
2024/01/20 05:52:10;;;;;;;45.17;16.50;;;;;;;-1.03;100.00;102679.31;5027423;28;20503;-68
2024/01/20 05:54:37;;;;;;;41.92;16.60;;;;;;;-1.02;100.00;102688.00;5029980;28;20099;-68
2024/01/20 05:57:04;;;;;;;41.03;17.17;;;;;;;-1.02;100.00;102678.50;5026645;28;20635;-68
2024/01/20 05:59:31;;;;;;;43.67;16.50;;;;;;;-1.00;100.00;102670.78;5026635;28;20038;-68
2024/01/20 06:01:58;;;;;;;38.97;15.77;;;;;;;-0.99;100.00;102664.81;5041668;28;20045;-69
2024/01/20 06:04:26;;;;;;;37.90;16.25;;;;;;;-0.99;100.00;102663.13;5024535;28;20049;-68
2024/01/20 06:06:53;;;;;;;40.72;16.13;;;;;;;-0.99;100.00;102662.22;5027871;28;20116;-67
2024/01/20 06:09:20;;;;;;;40.08;15.73;;;;;;;-1.06;100.00;102667.94;5028263;28;20049;-67
2024/01/20 06:11:48;;;;;;;40.65;17.10;;;;;;;-1.13;100.00;102679.69;5025286;28;20525;-67
2024/01/20 06:14:15;;;;;;;44.15;16.65;;;;;;;-1.22;100.00;102677.53;5025061;28;20053;-67
2024/01/20 06:16:42;;;;;;;43.22;16.75;;;;;;;-1.29;100.00;102675.47;5026149;28;20041;-67
2024/01/20 06:19:09;;;;;;;37.88;16.23;;;;;;;-1.33;100.00;102683.94;5027332;28;20041;-67
2024/01/20 06:21:37;;;;;;;41.35;16.17;;;;;;;-1.31;100.00;102679.69;5024894;28;20037;-67
2024/01/20 06:24:04;;;;;;;45.05;17.17;;;;;;;-1.29;100.00;102685.84;5027159;28;20057;-68
2024/01/20 06:26:33;;;;;;;38.08;16.98;;;;;;;-1.26;100.00;102686.88;5024950;28;20579;-67
2024/01/20 06:29:02;;;;;;;42.40;16.92;;;;;;;-1.22;100.00;102695.66;5024467;28;20433;-67
2024/01/20 06:31:29;;;;;;;36.15;15.02;;;;;;;-1.19;100.00;102701.00;5023923;28;20128;-67
2024/01/20 06:33:56;;;;;;;36.70;17.17;;;;;;;-1.17;100.00;102693.31;5026319;28;20049;-68
2024/01/20 06:36:26;;;;;;;39.42;15.55;;;;;;;-1.14;100.00;102693.44;5024219;28;20128;-65
2024/01/20 06:38:56;;;;;;;43.45;17.25;;;;;;;-1.13;100.00;102700.41;5040822;28;20428;-68
2024/01/20 06:41:26;;;;;;;38.13;16.27;;;;;;;-1.11;100.00;102693.59;5025357;28;20025;-68
2024/01/20 06:43:53;;;;;;;37.70;16.60;;;;;;;-1.08;100.00;102696.34;5024036;28;20092;-68
2024/01/20 06:46:20;;;;;;;39.45;16.38;;;;;;;-1.07;100.00;102699.81;5026881;28;20095;-68
2024/01/20 06:48:47;;;;;;;40.50;17.45;;;;;;;-1.07;100.00;102711.06;5026702;28;20121;-68
2024/01/20 06:51:17;;;;;;;44.00;16.63;;;;;;;-1.05;100.00;102708.53;5024974;28;20056;-69
2024/01/20 06:53:44;;;;;;;44.47;17.42;;;;;;;-1.04;100.00;102706.00;5026157;28;20449;-68
2024/01/20 06:56:11;;;;;;;43.95;17.55;;;;;;;-1.11;100.00;102702.25;5025270;28;20052;-68
2024/01/20 06:58:39;;;;;;;40.40;17.15;;;;;;;-1.17;100.00;102701.97;5024854;28;20045;-69
2024/01/20 07:01:06;;;;;;;38.05;16.50;;;;;;;-1.19;100.00;102705.31;5023711;28;20062;-68
2024/01/20 07:03:33;;;;;;;39.28;16.98;;;;;;;-1.24;100.00;102694.72;5026665;28;20076;-68
2024/01/20 07:06:00;;;;;;;36.05;16.48;;;;;;;-1.25;100.00;102698.13;5026618;28;20634;-68
2024/01/20 07:08:28;;;;;;;39.40;17.45;;;;;;;-1.25;100.00;102696.41;5024752;28;20103;-69
2024/01/20 07:10:55;;;;;;;43.75;16.90;;;;;;;-1.24;100.00;102723.19;5026934;28;20034;-69
2024/01/20 07:13:22;;;;;;;39.20;16.67;;;;;;;-1.22;100.00;102716.38;5028149;28;20044;-68
2024/01/20 07:15:49;;;;;;;39.63;16.73;;;;;;;-1.21;100.00;102705.19;5030946;28;20520;-67
2024/01/20 07:18:16;;;;;;;35.97;15.68;;;;;;;-1.16;100.00;102708.00;5032130;28;20049;-68
2024/01/20 07:20:44;;;;;;;39.53;17.00;;;;;;;-1.14;100.00;102714.16;5025994;28;20128;-67
2024/01/20 07:23:11;;;;;;;38.70;15.63;;;;;;;-1.12;100.00;102708.22;5023823;28;21189;-67
2024/01/20 07:25:39;;;;;;;37.67;16.45;;;;;;;-1.10;100.00;102709.19;5016878;28;20049;-68
2024/01/20 07:28:06;;;;;;;37.92;15.57;;;;;;;-1.07;100.00;102720.53;5029618;28;20041;-68
2024/01/20 07:30:34;;;;;;;40.58;16.25;;;;;;;-1.04;100.00;102715.50;5030202;28;20363;-68
2024/01/20 07:33:02;;;;;;;34.42;14.75;;;;;;;-1.05;100.00;102714.59;5031007;28;20038;-68
2024/01/20 07:35:29;;;;;;;34.63;15.20;;;;;;;-1.03;100.00;102718.16;5030906;28;20049;-68
2024/01/20 07:37:56;;;;;;;41.92;15.32;;;;;;;-1.00;100.00;102726.06;5031774;28;20046;-68
2024/01/20 07:40:23;;;;;;;33.55;14.82;;;;;;;-1.00;100.00;102727.75;5029420;28;20073;-69
2024/01/20 07:42:50;;;;;;;37.03;15.70;;;;;;;-1.01;100.00;102725.97;5029850;28;20124;-69
2024/01/20 07:45:18;;;;;;;38.60;15.20;;;;;;;-1.01;100.00;102725.97;5029336;28;20042;-68
2024/01/20 07:47:49;;;;;;;32.88;15.07;;;;;;;-1.00;100.00;102726.06;5012231;28;20072;-68
2024/01/20 07:50:17;;;;;;;35.58;14.38;;;;;;;-0.97;100.00;102733.97;5029597;28;20099;-68
2024/01/20 07:52:44;;;;;;;33.60;14.55;;;;;;;-0.94;100.00;102728.94;5030546;28;20786;-68
2024/01/20 07:55:11;;;;;;;41.88;15.35;;;;;;;-0.90;100.00;102735.16;5030367;28;20047;-68
2024/01/20 07:57:39;;;;;;;35.35;14.80;;;;;;;-0.89;100.00;102734.34;5027983;28;20064;-69
2024/01/20 08:00:13;;;;;;;33.55;14.30;;;;;;;-0.84;100.00;102737.16;5027718;28;20688;-69
2024/01/20 08:02:40;;;;;;;33.15;13.77;;;;;;;-0.75;100.00;102744.47;5056476;28;20061;-69
2024/01/20 08:05:07;;;;;;;37.50;15.88;;;;;;;-0.61;100.00;102747.69;5029738;28;20041;-68
2024/01/20 08:07:34;;;;;;;37.38;15.98;;;;;;;-0.38;100.00;102731.50;5029902;28;20132;-69
2024/01/20 08:10:02;;;;;;;34.35;14.00;;;;;;;-0.23;100.00;102743.38;5028684;28;20041;-68
2024/01/20 08:12:29;;;;;;;34.03;14.02;;;;;;;-0.18;100.00;102747.06;5045194;28;20053;-71
2024/01/20 08:14:56;;;;;;;34.08;15.13;;;;;;;-0.12;100.00;102739.56;5027932;28;20123;-71
2024/01/20 08:17:23;;;;;;;36.42;14.45;;;;;;;0.02;100.00;102742.75;5029764;28;20049;-71
2024/01/20 08:19:50;;;;;;;32.53;13.85;;;;;;;0.12;100.00;102754.44;5027408;28;20521;-71
2024/01/20 08:22:17;;;;;;;29.08;12.63;;;;;;;0.18;100.00;102759.00;5030302;28;20045;-71
2024/01/20 08:24:44;;;;;;;30.63;13.40;;;;;;;0.28;100.00;102759.44;5027427;28;20148;-71
2024/01/20 08:27:12;;;;;;;29.00;12.95;;;;;;;0.41;100.00;102757.38;5029001;28;20097;-71
2024/01/20 08:29:39;;;;;;;28.33;13.32;;;;;;;0.48;100.00;102754.22;5028739;28;20054;-71
2024/01/20 08:32:06;;;;;;;32.60;13.75;;;;;;;0.56;100.00;102754.56;5029685;28;20099;-71
2024/01/20 08:34:33;;;;;;;35.28;13.38;;;;;;;0.66;100.00;102761.03;5029197;28;20546;-71
2024/01/20 08:37:00;;;;;;;30.30;13.43;;;;;;;0.66;100.00;102761.91;5015859;28;20569;-71
2024/01/20 08:39:27;;;;;;;29.17;13.85;;;;;;;0.69;100.00;102769.81;5025584;28;20053;-71
2024/01/20 08:41:55;;;;;;;26.05;11.52;;;;;;;0.73;100.00;102776.91;5028949;28;20049;-71
2024/01/20 08:44:22;;;;;;;26.05;12.13;;;;;;;0.76;100.00;102773.56;5028167;28;20065;-71
2024/01/20 08:46:49;;;;;;;29.65;12.90;;;;;;;0.83;100.00;102770.38;5025694;28;20077;-71
2024/01/20 08:49:16;;;;;;;31.80;13.98;;;;;;;0.84;100.00;102777.38;5027429;28;20612;-71
2024/01/20 08:51:43;;;;;;;43.13;22.40;;;;;;;0.86;100.00;102773.13;5024730;28;20044;-67
2024/01/20 08:54:10;;;;;;;56.88;33.60;;;;;;;0.77;100.00;102777.91;5027975;28;20409;-68
2024/01/20 08:56:38;;;;;;;93.15;56.55;;;;;;;0.59;100.00;102783.25;5026478;28;20524;-68
2024/01/20 08:59:05;;;;;;;51.17;33.90;;;;;;;0.46;100.00;102781.81;5026967;28;20041;-68
2024/01/20 09:01:32;;;;;;;37.53;18.08;;;;;;;0.39;100.00;102790.16;5027104;28;20045;-67
2024/01/20 09:04:01;;;;;;;168.40;75.50;;;;;;;0.31;100.00;102789.81;5026958;28;20100;-67
2024/01/20 09:06:28;;;;;;;139.20;61.20;;;;;;;0.30;100.00;102788.09;5025817;28;20046;-68
2024/01/20 09:08:55;;;;;;;77.40;47.80;;;;;;;0.29;100.00;102788.91;5043867;28;20116;-68
2024/01/20 09:11:23;;;;;;;48.97;26.13;;;;;;;0.30;100.00;102785.50;5029288;28;20049;-68
2024/01/20 09:13:51;;;;;;;48.85;28.58;;;;;;;0.35;100.00;102798.66;5028386;28;20638;-67
2024/01/20 09:16:18;;;;;;;57.13;36.35;;;;;;;0.36;100.00;102798.72;5044030;28;20045;-67
2024/01/20 09:18:45;;;;;;;51.13;29.83;;;;;;;0.42;100.00;102792.91;5028722;28;20045;-68
2024/01/20 09:21:13;;;;;;;101.80;68.40;;;;;;;0.52;100.00;102794.16;5010407;28;20056;-68
2024/01/20 09:23:40;;;;;;;41.80;25.27;;;;;;;0.55;100.00;102796.91;5028316;28;20048;-68
2024/01/20 09:26:08;;;;;;;40.03;20.33;;;;;;;0.53;100.00;102796.84;5029362;28;20037;-68
2024/01/20 09:28:35;;;;;;;45.05;23.90;;;;;;;0.54;100.00;102793.44;5029852;28;20099;-68
2024/01/20 09:31:03;;;;;;;35.65;18.02;;;;;;;0.53;100.00;102795.94;5025634;28;20049;-68
2024/01/20 09:33:34;;;;;;;34.38;16.85;;;;;;;0.50;100.00;102801.91;5024118;28;20091;-68
2024/01/20 09:36:02;;;;;;;34.90;17.83;;;;;;;0.46;100.00;102798.28;5026868;28;20551;-68
2024/01/20 09:38:30;;;;;;;33.85;15.65;;;;;;;0.41;100.00;102799.78;5042063;28;20597;-68
2024/01/20 09:40:58;;;;;;;42.25;19.08;;;;;;;0.36;100.00;102809.09;5026540;28;20037;-68
2024/01/20 09:43:25;;;;;;;108.00;47.60;;;;;;;0.33;100.00;102806.34;5025869;28;20052;-68
2024/01/20 09:45:53;;;;;;;42.03;21.33;;;;;;;0.35;100.00;102812.50;5025562;28;20041;-68
2024/01/20 09:48:21;;;;;;;41.22;20.95;;;;;;;0.38;100.00;102804.88;5027311;28;20049;-68
2024/01/20 09:50:49;;;;;;;43.35;20.90;;;;;;;0.43;100.00;102803.34;5026899;28;20034;-68
2024/01/20 09:53:17;;;;;;;41.75;20.27;;;;;;;0.43;100.00;102803.34;5027771;28;20041;-68
2024/01/20 09:55:46;;;;;;;44.97;23.15;;;;;;;0.49;100.00;102810.50;5028474;28;20049;-68
2024/01/20 09:58:16;;;;;;;34.28;15.25;;;;;;;0.52;100.00;102808.06;5027713;28;20408;-68
2024/01/20 10:00:44;;;;;;;36.92;17.77;;;;;;;0.55;100.00;102809.88;5027225;28;20209;-69
2024/01/20 10:03:12;;;;;;;35.38;15.50;;;;;;;0.52;100.00;102808.06;5026993;28;20400;-68
2024/01/20 10:05:41;;;;;;;34.75;14.02;;;;;;;0.54;100.00;102821.09;5024762;28;20065;-68
2024/01/20 10:08:08;;;;;;;32.97;15.75;;;;;;;0.52;100.00;102817.53;5027278;28;20119;-68
2024/01/20 10:10:35;;;;;;;31.67;13.60;;;;;;;0.52;100.00;102825.31;5042384;28;20042;-68
2024/01/20 10:13:03;;;;;;;32.83;14.68;;;;;;;0.51;100.00;102819.25;5043482;28;20128;-68
2024/01/20 10:15:31;;;;;;;29.25;13.90;;;;;;;0.51;100.00;102828.75;5027707;28;20049;-68
2024/01/20 10:18:10;;;;;;;33.47;14.93;;;;;;;0.57;100.00;102823.81;5027251;28;20064;-68
2024/01/20 10:20:37;;;;;;;34.10;15.68;;;;;;;0.57;100.00;102836.78;5007531;28;20041;-68
2024/01/20 10:23:07;;;;;;;30.30;13.38;;;;;;;0.57;100.00;102836.78;5027002;28;20041;-68
2024/01/20 10:25:34;;;;;;;32.85;13.55;;;;;;;0.53;100.00;102835.78;5027146;28;20042;-68
2024/01/20 10:28:02;;;;;;;30.85;13.25;;;;;;;0.50;100.00;102834.78;5027715;28;20496;-68
2024/01/20 10:30:30;;;;;;;27.48;13.07;;;;;;;0.50;100.00;102838.25;5026679;28;20050;-66
2024/01/20 10:33:02;;;;;;;33.85;14.27;;;;;;;0.56;100.00;102843.69;5027999;28;20041;-66
2024/01/20 10:35:38;;;;;;;32.00;14.82;;;;;;;0.68;100.00;102842.44;5043512;28;20042;-66
2024/01/20 10:38:12;;;;;;;28.50;13.55;;;;;;;0.75;100.00;102842.78;5027357;28;20045;-66
2024/01/20 10:40:42;;;;;;;28.75;13.43;;;;;;;0.83;100.00;102848.31;5027029;28;20064;-66
2024/01/20 10:43:14;;;;;;;32.05;13.35;;;;;;;0.89;100.00;102850.25;5026721;28;20050;-66
2024/01/20 10:46:04;;;;;;;;;;;;;;;0.87;100.00;102834.59;5025174;28;20127;-66
2024/01/20 10:48:36;;;;;;;39.30;17.13;;;;;;;0.86;100.00;102840.66;5027496;28;20038;-66
2024/01/20 10:51:12;;;;;;;35.88;16.55;;;;;;;0.85;100.00;102837.97;5029838;28;20430;-66
2024/01/20 10:53:41;;;;;;;33.90;16.48;;;;;;;0.90;100.00;102841.66;5032309;28;20140;-66
2024/01/20 10:56:11;;;;;;;58.20;37.10;;;;;;;1.04;100.00;102835.31;5030361;28;20140;-66
2024/01/20 10:58:50;;;;;;;63.47;39.45;;;;;;;1.10;100.00;102832.06;5032845;28;20405;-66
2024/01/20 11:01:18;;;;;;;34.83;16.65;;;;;;;1.11;100.00;102827.78;5030461;28;20037;-66
2024/01/20 11:03:46;;;;;;;31.90;14.68;;;;;;;1.10;100.00;102824.28;5031805;28;20119;-66
2024/01/20 11:06:24;;;;;;;32.33;14.23;;;;;;;1.08;100.00;102821.63;5032124;28;20103;-66